sensor_id;sensor_type;location;lat;lon;timestamp;temperature;humidity
45014;DHT22;30749;53.052;8.900;2022-09-01T00:02:11;18.80;1.00
45014;DHT22;30749;53.052;8.900;2022-09-01T00:04:36;18.80;1.00
45014;DHT22;30749;53.052;8.900;2022-09-01T00:07:02;18.70;1.00
45014;DHT22;30749;53.052;8.900;2022-09-01T00:09:28;18.70;1.00
45014;DHT22;30749;53.052;8.900;2022-09-01T00:11:53;18.60;1.00
45014;DHT22;30749;53.052;8.900;2022-09-01T00:14:20;18.60;1.00
45014;DHT22;30749;53.052;8.900;2022-09-01T00:16:46;18.70;1.00
45014;DHT22;30749;53.052;8.900;2022-09-01T00:19:12;18.60;1.00
45014;DHT22;30749;53.052;8.900;2022-09-01T00:21:39;18.50;1.00
45014;DHT22;30749;53.052;8.900;2022-09-01T00:24:05;18.50;1.00
45014;DHT22;30749;53.052;8.900;2022-09-01T00:26:31;18.60;1.00
45014;DHT22;30749;53.052;8.900;2022-09-01T00:28:56;18.60;1.00
45014;DHT22;30749;53.052;8.900;2022-09-01T00:31:22;18.60;1.00
45014;DHT22;30749;53.052;8.900;2022-09-01T00:33:48;18.60;1.00
45014;DHT22;30749;53.052;8.900;2022-09-01T00:36:14;18.50;1.00
45014;DHT22;30749;53.052;8.900;2022-09-01T00:38:40;18.50;1.00
45014;DHT22;30749;53.052;8.900;2022-09-01T00:41:05;18.60;1.00
45014;DHT22;30749;53.052;8.900;2022-09-01T00:46:04;18.50;1.00
45014;DHT22;30749;53.052;8.900;2022-09-01T00:48:30;18.50;1.00
45014;DHT22;30749;53.052;8.900;2022-09-01T00:50:56;18.40;1.00
45014;DHT22;30749;53.052;8.900;2022-09-01T00:53:21;18.40;1.00
45014;DHT22;30749;53.052;8.900;2022-09-01T00:55:47;18.30;1.00
45014;DHT22;30749;53.052;8.900;2022-09-01T00:58:13;18.30;1.00
45014;DHT22;30749;53.052;8.900;2022-09-01T01:00:38;18.30;1.00
45014;DHT22;30749;53.052;8.900;2022-09-01T01:03:14;18.20;1.00
45014;DHT22;30749;53.052;8.900;2022-09-01T01:05:41;18.10;1.00
45014;DHT22;30749;53.052;8.900;2022-09-01T01:08:07;18.00;1.00
45014;DHT22;30749;53.052;8.900;2022-09-01T01:10:35;18.00;1.00
45014;DHT22;30749;53.052;8.900;2022-09-01T01:13:04;18.00;1.00
45014;DHT22;30749;53.052;8.900;2022-09-01T01:15:30;18.00;1.00
45014;DHT22;30749;53.052;8.900;2022-09-01T01:17:56;18.00;1.00
45014;DHT22;30749;53.052;8.900;2022-09-01T01:20:24;17.90;1.00
45014;DHT22;30749;53.052;8.900;2022-09-01T01:22:59;17.90;1.00
45014;DHT22;30749;53.052;8.900;2022-09-01T01:25:46;17.80;1.00
45014;DHT22;30749;53.052;8.900;2022-09-01T01:28:14;17.80;1.00
45014;DHT22;30749;53.052;8.900;2022-09-01T01:30:41;17.90;1.00
45014;DHT22;30749;53.052;8.900;2022-09-01T01:33:07;17.90;1.00
45014;DHT22;30749;53.052;8.900;2022-09-01T01:35:33;18.00;1.00
45014;DHT22;30749;53.052;8.900;2022-09-01T01:37:59;17.90;1.00
45014;DHT22;30749;53.052;8.900;2022-09-01T01:40:25;17.80;1.00
45014;DHT22;30749;53.052;8.900;2022-09-01T01:42:51;17.70;1.00
45014;DHT22;30749;53.052;8.900;2022-09-01T01:45:18;17.90;1.00
45014;DHT22;30749;53.052;8.900;2022-09-01T01:47:45;18.00;1.00
45014;DHT22;30749;53.052;8.900;2022-09-01T01:50:11;18.00;1.00
45014;DHT22;30749;53.052;8.900;2022-09-01T01:52:37;18.00;1.00
45014;DHT22;30749;53.052;8.900;2022-09-01T01:55:02;18.00;1.00
45014;DHT22;30749;53.052;8.900;2022-09-01T01:57:29;17.90;1.00
45014;DHT22;30749;53.052;8.900;2022-09-01T01:59:54;17.90;1.00
45014;DHT22;30749;53.052;8.900;2022-09-01T02:02:20;17.90;1.00
45014;DHT22;30749;53.052;8.900;2022-09-01T02:04:45;18.00;1.00
45014;DHT22;30749;53.052;8.900;2022-09-01T02:07:12;18.10;1.00
45014;DHT22;30749;53.052;8.900;2022-09-01T02:09:38;18.20;1.00
45014;DHT22;30749;53.052;8.900;2022-09-01T02:12:03;18.10;1.00
45014;DHT22;30749;53.052;8.900;2022-09-01T02:14:31;18.20;1.00
45014;DHT22;30749;53.052;8.900;2022-09-01T02:16:56;18.20;1.00
45014;DHT22;30749;53.052;8.900;2022-09-01T02:19:22;18.20;1.00
45014;DHT22;30749;53.052;8.900;2022-09-01T02:21:48;18.20;1.00
45014;DHT22;30749;53.052;8.900;2022-09-01T02:24:13;18.10;1.00
45014;DHT22;30749;53.052;8.900;2022-09-01T02:26:40;18.00;1.00
45014;DHT22;30749;53.052;8.900;2022-09-01T02:29:07;18.00;1.00
45014;DHT22;30749;53.052;8.900;2022-09-01T02:31:37;17.90;1.00
45014;DHT22;30749;53.052;8.900;2022-09-01T02:34:02;17.90;1.00
45014;DHT22;30749;53.052;8.900;2022-09-01T02:36:28;17.80;1.00
45014;DHT22;30749;53.052;8.900;2022-09-01T02:38:54;17.90;1.00
45014;DHT22;30749;53.052;8.900;2022-09-01T02:41:19;17.90;1.00
45014;DHT22;30749;53.052;8.900;2022-09-01T02:43:45;17.80;1.00
45014;DHT22;30749;53.052;8.900;2022-09-01T02:46:11;17.80;1.00
45014;DHT22;30749;53.052;8.900;2022-09-01T02:48:39;17.80;1.00
45014;DHT22;30749;53.052;8.900;2022-09-01T02:51:06;17.80;1.00
45014;DHT22;30749;53.052;8.900;2022-09-01T02:53:32;17.70;1.00
45014;DHT22;30749;53.052;8.900;2022-09-01T02:55:58;17.70;1.00
45014;DHT22;30749;53.052;8.900;2022-09-01T02:58:25;17.70;1.00
45014;DHT22;30749;53.052;8.900;2022-09-01T03:00:52;17.60;1.00
45014;DHT22;30749;53.052;8.900;2022-09-01T03:03:18;17.70;1.00
45014;DHT22;30749;53.052;8.900;2022-09-01T03:05:44;17.70;1.00
45014;DHT22;30749;53.052;8.900;2022-09-01T03:08:10;17.60;1.00
45014;DHT22;30749;53.052;8.900;2022-09-01T03:10:38;17.70;1.00
45014;DHT22;30749;53.052;8.900;2022-09-01T03:13:05;17.60;1.00
45014;DHT22;30749;53.052;8.900;2022-09-01T03:15:31;17.50;1.00
45014;DHT22;30749;53.052;8.900;2022-09-01T03:17:57;17.40;1.00
45014;DHT22;30749;53.052;8.900;2022-09-01T03:20:22;17.40;1.00
45014;DHT22;30749;53.052;8.900;2022-09-01T03:22:48;17.50;1.00
45014;DHT22;30749;53.052;8.900;2022-09-01T03:25:15;17.50;1.00
45014;DHT22;30749;53.052;8.900;2022-09-01T03:27:40;17.60;1.00
45014;DHT22;30749;53.052;8.900;2022-09-01T03:30:06;17.60;1.00
45014;DHT22;30749;53.052;8.900;2022-09-01T03:32:32;17.50;1.00
45014;DHT22;30749;53.052;8.900;2022-09-01T03:34:58;17.50;1.00
45014;DHT22;30749;53.052;8.900;2022-09-01T03:37:24;17.50;1.00
45014;DHT22;30749;53.052;8.900;2022-09-01T03:39:50;17.40;1.00
45014;DHT22;30749;53.052;8.900;2022-09-01T03:42:15;17.40;1.00
45014;DHT22;30749;53.052;8.900;2022-09-01T03:44:41;17.40;1.00
45014;DHT22;30749;53.052;8.900;2022-09-01T03:47:06;17.40;1.00
45014;DHT22;30749;53.052;8.900;2022-09-01T03:49:32;17.30;1.00
45014;DHT22;30749;53.052;8.900;2022-09-01T03:51:58;17.20;1.00
45014;DHT22;30749;53.052;8.900;2022-09-01T03:54:24;17.20;1.00
45014;DHT22;30749;53.052;8.900;2022-09-01T03:56:50;17.20;1.00
45014;DHT22;30749;53.052;8.900;2022-09-01T03:59:16;17.20;1.00
45014;DHT22;30749;53.052;8.900;2022-09-01T04:01:43;17.10;1.00
45014;DHT22;30749;53.052;8.900;2022-09-01T04:04:09;17.00;1.00
45014;DHT22;30749;53.052;8.900;2022-09-01T04:06:35;17.00;1.00
45014;DHT22;30749;53.052;8.900;2022-09-01T04:09:01;17.00;1.00
45014;DHT22;30749;53.052;8.900;2022-09-01T04:11:30;17.00;1.00
45014;DHT22;30749;53.052;8.900;2022-09-01T04:13:55;17.00;1.00
45014;DHT22;30749;53.052;8.900;2022-09-01T04:16:22;17.00;1.00
45014;DHT22;30749;53.052;8.900;2022-09-01T04:18:48;17.00;1.00
45014;DHT22;30749;53.052;8.900;2022-09-01T04:21:14;16.90;1.00
45014;DHT22;30749;53.052;8.900;2022-09-01T04:23:39;16.80;1.00
45014;DHT22;30749;53.052;8.900;2022-09-01T04:26:10;16.70;1.00
45014;DHT22;30749;53.052;8.900;2022-09-01T04:28:44;16.70;1.00
45014;DHT22;30749;53.052;8.900;2022-09-01T04:31:11;16.70;1.00
45014;DHT22;30749;53.052;8.900;2022-09-01T04:33:37;16.60;1.00
45014;DHT22;30749;53.052;8.900;2022-09-01T04:36:03;16.60;1.00
45014;DHT22;30749;53.052;8.900;2022-09-01T04:38:29;16.50;1.00
45014;DHT22;30749;53.052;8.900;2022-09-01T04:40:55;16.50;1.00
45014;DHT22;30749;53.052;8.900;2022-09-01T04:43:23;16.60;1.00
45014;DHT22;30749;53.052;8.900;2022-09-01T04:45:49;16.50;1.00
45014;DHT22;30749;53.052;8.900;2022-09-01T04:48:14;16.60;1.00
45014;DHT22;30749;53.052;8.900;2022-09-01T04:50:41;16.60;1.00
45014;DHT22;30749;53.052;8.900;2022-09-01T04:53:16;16.60;1.00
45014;DHT22;30749;53.052;8.900;2022-09-01T04:55:45;16.60;1.00
45014;DHT22;30749;53.052;8.900;2022-09-01T04:58:12;16.60;1.00
45014;DHT22;30749;53.052;8.900;2022-09-01T05:00:39;16.50;1.00
45014;DHT22;30749;53.052;8.900;2022-09-01T05:03:05;16.60;1.00
45014;DHT22;30749;53.052;8.900;2022-09-01T05:05:53;16.60;1.00
45014;DHT22;30749;53.052;8.900;2022-09-01T05:08:20;16.50;1.00
45014;DHT22;30749;53.052;8.900;2022-09-01T05:10:47;16.50;1.00
45014;DHT22;30749;53.052;8.900;2022-09-01T05:13:17;16.50;1.00
45014;DHT22;30749;53.052;8.900;2022-09-01T05:15:44;16.40;1.00
45014;DHT22;30749;53.052;8.900;2022-09-01T05:18:10;16.40;1.00
45014;DHT22;30749;53.052;8.900;2022-09-01T05:20:37;16.40;1.00
45014;DHT22;30749;53.052;8.900;2022-09-01T05:23:03;16.40;1.00
45014;DHT22;30749;53.052;8.900;2022-09-01T05:25:28;16.40;1.00
45014;DHT22;30749;53.052;8.900;2022-09-01T05:27:54;16.40;1.00
45014;DHT22;30749;53.052;8.900;2022-09-01T05:30:21;16.40;1.00
45014;DHT22;30749;53.052;8.900;2022-09-01T05:32:47;16.40;1.00
45014;DHT22;30749;53.052;8.900;2022-09-01T05:35:13;16.30;1.00
45014;DHT22;30749;53.052;8.900;2022-09-01T05:37:39;16.20;1.00
45014;DHT22;30749;53.052;8.900;2022-09-01T05:40:05;16.20;1.00
45014;DHT22;30749;53.052;8.900;2022-09-01T05:42:31;16.20;1.00
45014;DHT22;30749;53.052;8.900;2022-09-01T05:44:57;16.10;1.00
45014;DHT22;30749;53.052;8.900;2022-09-01T05:47:23;16.00;1.00
45014;DHT22;30749;53.052;8.900;2022-09-01T05:49:51;16.10;1.00
45014;DHT22;30749;53.052;8.900;2022-09-01T05:52:17;16.10;1.00
45014;DHT22;30749;53.052;8.900;2022-09-01T05:54:43;16.20;1.00
45014;DHT22;30749;53.052;8.900;2022-09-01T05:57:08;16.20;1.00
45014;DHT22;30749;53.052;8.900;2022-09-01T05:59:34;16.20;1.00
45014;DHT22;30749;53.052;8.900;2022-09-01T06:02:04;16.10;1.00
45014;DHT22;30749;53.052;8.900;2022-09-01T06:04:29;16.10;1.00
45014;DHT22;30749;53.052;8.900;2022-09-01T06:07:01;16.10;1.00
45014;DHT22;30749;53.052;8.900;2022-09-01T06:09:26;16.30;1.00
45014;DHT22;30749;53.052;8.900;2022-09-01T06:11:53;16.30;1.00
45014;DHT22;30749;53.052;8.900;2022-09-01T06:14:19;16.50;1.00
45014;DHT22;30749;53.052;8.900;2022-09-01T06:16:45;16.40;1.00
45014;DHT22;30749;53.052;8.900;2022-09-01T06:19:11;16.40;1.00
45014;DHT22;30749;53.052;8.900;2022-09-01T06:21:37;16.40;1.00
45014;DHT22;30749;53.052;8.900;2022-09-01T06:24:04;16.40;1.00
45014;DHT22;30749;53.052;8.900;2022-09-01T06:26:31;16.50;1.00
45014;DHT22;30749;53.052;8.900;2022-09-01T06:29:02;16.60;1.00
45014;DHT22;30749;53.052;8.900;2022-09-01T06:31:30;16.60;1.00
45014;DHT22;30749;53.052;8.900;2022-09-01T06:33:56;16.70;1.00
45014;DHT22;30749;53.052;8.900;2022-09-01T06:36:23;16.60;1.00
45014;DHT22;30749;53.052;8.900;2022-09-01T06:38:49;16.70;1.00
45014;DHT22;30749;53.052;8.900;2022-09-01T06:41:14;16.70;1.00
45014;DHT22;30749;53.052;8.900;2022-09-01T06:43:40;16.80;1.00
45014;DHT22;30749;53.052;8.900;2022-09-01T06:46:06;17.00;1.00
45014;DHT22;30749;53.052;8.900;2022-09-01T06:48:32;17.00;1.00
45014;DHT22;30749;53.052;8.900;2022-09-01T06:51:03;17.10;1.00
45014;DHT22;30749;53.052;8.900;2022-09-01T06:53:29;17.10;1.00
45014;DHT22;30749;53.052;8.900;2022-09-01T06:55:54;17.20;1.00
45014;DHT22;30749;53.052;8.900;2022-09-01T06:58:20;17.30;1.00
45014;DHT22;30749;53.052;8.900;2022-09-01T07:00:49;17.40;1.00
45014;DHT22;30749;53.052;8.900;2022-09-01T07:03:16;17.40;1.00
45014;DHT22;30749;53.052;8.900;2022-09-01T07:05:57;17.50;1.00
45014;DHT22;30749;53.052;8.900;2022-09-01T07:08:43;17.50;1.00
45014;DHT22;30749;53.052;8.900;2022-09-01T07:11:29;17.60;1.00
45014;DHT22;30749;53.052;8.900;2022-09-01T07:13:56;17.60;1.00
45014;DHT22;30749;53.052;8.900;2022-09-01T07:16:23;17.70;1.00
45014;DHT22;30749;53.052;8.900;2022-09-01T07:18:50;17.70;1.00
45014;DHT22;30749;53.052;8.900;2022-09-01T07:21:16;17.90;1.00
45014;DHT22;30749;53.052;8.900;2022-09-01T07:23:45;18.00;1.00
45014;DHT22;30749;53.052;8.900;2022-09-01T07:26:11;18.10;1.00
45014;DHT22;30749;53.052;8.900;2022-09-01T07:28:55;18.10;1.00
45014;DHT22;30749;53.052;8.900;2022-09-01T07:31:26;18.30;1.00
45014;DHT22;30749;53.052;8.900;2022-09-01T07:33:54;18.30;1.00
45014;DHT22;30749;53.052;8.900;2022-09-01T07:36:25;18.40;1.00
45014;DHT22;30749;53.052;8.900;2022-09-01T07:38:54;18.50;1.00
45014;DHT22;30749;53.052;8.900;2022-09-01T07:41:20;18.60;1.00
45014;DHT22;30749;53.052;8.900;2022-09-01T07:44:26;18.70;1.00
45014;DHT22;30749;53.052;8.900;2022-09-01T07:47:15;18.90;1.00
45014;DHT22;30749;53.052;8.900;2022-09-01T07:49:41;18.80;1.00
45014;DHT22;30749;53.052;8.900;2022-09-01T07:52:06;19.00;1.00
45014;DHT22;30749;53.052;8.900;2022-09-01T07:57:37;19.20;1.00
45014;DHT22;30749;53.052;8.900;2022-09-01T08:00:04;19.30;1.00
45014;DHT22;30749;53.052;8.900;2022-09-01T08:02:39;19.50;1.00
45014;DHT22;30749;53.052;8.900;2022-09-01T08:05:06;19.70;1.00
45014;DHT22;30749;53.052;8.900;2022-09-01T08:07:33;19.90;1.00
45014;DHT22;30749;53.052;8.900;2022-09-01T08:09:59;20.20;1.00
45014;DHT22;30749;53.052;8.900;2022-09-01T08:12:24;20.40;1.00
45014;DHT22;30749;53.052;8.900;2022-09-01T08:14:51;20.60;1.00
45014;DHT22;30749;53.052;8.900;2022-09-01T08:17:18;20.80;1.00
45014;DHT22;30749;53.052;8.900;2022-09-01T08:19:44;21.00;1.00
45014;DHT22;30749;53.052;8.900;2022-09-01T08:22:17;21.20;1.00
45014;DHT22;30749;53.052;8.900;2022-09-01T08:25:00;21.40;1.00
45014;DHT22;30749;53.052;8.900;2022-09-01T08:27:26;21.50;1.00
45014;DHT22;30749;53.052;8.900;2022-09-01T08:29:51;21.70;1.00
45014;DHT22;30749;53.052;8.900;2022-09-01T08:32:18;21.90;1.00
45014;DHT22;30749;53.052;8.900;2022-09-01T08:34:43;22.10;1.00
45014;DHT22;30749;53.052;8.900;2022-09-01T08:37:09;22.20;1.00
45014;DHT22;30749;53.052;8.900;2022-09-01T08:39:36;22.30;1.00
45014;DHT22;30749;53.052;8.900;2022-09-01T08:44:52;22.60;1.00
45014;DHT22;30749;53.052;8.900;2022-09-01T08:47:21;22.70;1.00
45014;DHT22;30749;53.052;8.900;2022-09-01T08:49:47;22.80;1.00
45014;DHT22;30749;53.052;8.900;2022-09-01T08:52:36;23.00;1.00
45014;DHT22;30749;53.052;8.900;2022-09-01T08:55:11;23.20;1.00
45014;DHT22;30749;53.052;8.900;2022-09-01T08:57:40;23.20;1.00
45014;DHT22;30749;53.052;8.900;2022-09-01T09:00:19;23.50;1.00
45014;DHT22;30749;53.052;8.900;2022-09-01T09:03:01;23.70;1.00
45014;DHT22;30749;53.052;8.900;2022-09-01T09:10:59;24.10;1.00
45014;DHT22;30749;53.052;8.900;2022-09-01T09:13:40;24.20;1.00
45014;DHT22;30749;53.052;8.900;2022-09-01T09:18:43;24.40;1.00
45014;DHT22;30749;53.052;8.900;2022-09-01T09:21:12;24.60;1.00
45014;DHT22;30749;53.052;8.900;2022-09-01T09:23:42;24.90;1.00
45014;DHT22;30749;53.052;8.900;2022-09-01T09:26:09;25.10;1.00
45014;DHT22;30749;53.052;8.900;2022-09-01T09:28:35;25.30;1.00
45014;DHT22;30749;53.052;8.900;2022-09-01T09:33:45;25.10;1.00
45014;DHT22;30749;53.052;8.900;2022-09-01T09:36:19;25.20;1.00
45014;DHT22;30749;53.052;8.900;2022-09-01T09:38:45;25.40;1.00
45014;DHT22;30749;53.052;8.900;2022-09-01T09:41:15;25.60;1.00
45014;DHT22;30749;53.052;8.900;2022-09-01T09:43:47;25.80;1.00
45014;DHT22;30749;53.052;8.900;2022-09-01T09:48:44;26.30;1.00
45014;DHT22;30749;53.052;8.900;2022-09-01T09:51:19;26.40;1.00
45014;DHT22;30749;53.052;8.900;2022-09-01T09:53:45;26.70;1.00
45014;DHT22;30749;53.052;8.900;2022-09-01T09:58:39;26.40;1.00
45014;DHT22;30749;53.052;8.900;2022-09-01T10:01:13;26.40;1.00
45014;DHT22;30749;53.052;8.900;2022-09-01T10:03:40;26.40;1.00
45014;DHT22;30749;53.052;8.900;2022-09-01T10:06:10;26.70;1.00
45014;DHT22;30749;53.052;8.900;2022-09-01T10:08:41;26.80;1.00
45014;DHT22;30749;53.052;8.900;2022-09-01T10:11:07;27.20;1.00
45014;DHT22;30749;53.052;8.900;2022-09-01T10:13:33;27.40;1.00
45014;DHT22;30749;53.052;8.900;2022-09-01T10:16:01;27.50;1.00
45014;DHT22;30749;53.052;8.900;2022-09-01T10:18:38;27.70;1.00
45014;DHT22;30749;53.052;8.900;2022-09-01T10:21:08;28.00;1.00
45014;DHT22;30749;53.052;8.900;2022-09-01T10:23:34;28.40;1.00
45014;DHT22;30749;53.052;8.900;2022-09-01T10:26:05;28.50;1.00
45014;DHT22;30749;53.052;8.900;2022-09-01T10:28:32;28.50;1.00
45014;DHT22;30749;53.052;8.900;2022-09-01T10:30:58;28.50;1.00
